createdAt,value
2018-06-10T00:01:23.226Z,19.40
2018-06-10T00:03:51.982Z,19.40
2018-06-10T00:06:21.138Z,19.40
2018-06-10T00:08:50.173Z,19.30
2018-06-10T00:11:18.903Z,19.20
2018-06-10T00:13:47.049Z,19.20
2018-06-10T00:16:15.295Z,19.20
2018-06-10T00:18:43.522Z,19.10
2018-06-10T00:21:12.402Z,19.10
2018-06-10T00:23:41.286Z,18.90
2018-06-10T00:26:09.495Z,18.70
2018-06-10T00:28:43.566Z,18.70
2018-06-10T00:31:11.747Z,18.60
2018-06-10T00:33:41.185Z,18.70
2018-06-10T00:38:38.094Z,18.80
2018-06-10T00:41:07.146Z,18.90
2018-06-10T00:43:35.509Z,18.90
2018-06-10T00:46:04.824Z,18.70
2018-06-10T00:48:33.858Z,18.70
2018-06-10T00:51:01.980Z,18.70
2018-06-10T00:53:30.742Z,18.70
2018-06-10T00:55:58.943Z,18.70
2018-06-10T01:00:56.515Z,18.50
2018-06-10T01:03:25.097Z,18.30
2018-06-10T01:05:54.991Z,18.00
2018-06-10T01:08:23.240Z,17.80
2018-06-10T01:10:52.018Z,17.90
2018-06-10T01:13:20.773Z,17.70
2018-06-10T01:15:50.433Z,17.60
2018-06-10T01:18:18.529Z,17.60
2018-06-10T01:20:46.803Z,17.70
2018-06-10T01:23:14.946Z,17.80
2018-06-10T01:25:44.291Z,17.90
2018-06-10T01:28:12.476Z,17.90
2018-06-10T01:30:42.251Z,18.10
2018-06-10T01:33:10.486Z,18.10
2018-06-10T01:35:38.638Z,18.00
2018-06-10T01:38:07.439Z,18.00
2018-06-10T01:43:05.867Z,18.10
2018-06-10T01:45:34.882Z,18.10
2018-06-10T01:48:03.177Z,18.10
2018-06-10T01:50:33.099Z,18.00
2018-06-10T01:53:01.904Z,18.00
2018-06-10T01:55:30.796Z,18.00
2018-06-10T01:57:59.615Z,18.00
2018-06-10T02:00:27.849Z,18.00
2018-06-10T02:02:56.231Z,18.00
2018-06-10T02:05:24.421Z,17.90
2018-06-10T02:07:53.329Z,17.90
2018-06-10T02:10:23.006Z,17.80
2018-06-10T02:12:51.972Z,17.70
2018-06-10T02:15:21.038Z,17.70
2018-06-10T02:17:49.896Z,17.80
2018-06-10T02:20:18.832Z,17.80
2018-06-10T02:22:47.073Z,17.80
2018-06-10T02:25:15.738Z,17.90
2018-06-10T02:27:44.426Z,17.90
2018-06-10T02:30:12.624Z,17.90
2018-06-10T02:32:40.872Z,17.90
2018-06-10T02:35:09.610Z,17.80
2018-06-10T02:37:37.861Z,17.80
2018-06-10T02:40:06.523Z,17.80
2018-06-10T02:42:34.705Z,17.70
2018-06-10T02:45:02.871Z,17.70
2018-06-10T02:47:31.055Z,17.70
2018-06-10T02:49:59.581Z,17.80
2018-06-10T02:52:28.226Z,17.80
2018-06-10T02:54:56.973Z,17.90
2018-06-10T02:57:25.813Z,17.90
2018-06-10T02:59:54.970Z,17.90
2018-06-10T03:02:23.757Z,18.00
2018-06-10T03:04:52.491Z,18.00
2018-06-10T03:09:48.976Z,17.90
2018-06-10T03:12:17.746Z,17.90
2018-06-10T03:17:14.370Z,17.80
2018-06-10T03:19:43.011Z,17.90
2018-06-10T03:22:11.236Z,17.90
2018-06-10T03:24:40.146Z,17.80
2018-06-10T03:27:09.714Z,17.90
2018-06-10T03:29:38.035Z,17.80
2018-06-10T03:32:06.247Z,17.80
2018-06-10T03:34:34.760Z,17.90
2018-06-10T03:37:02.886Z,17.90
2018-06-10T03:39:31.694Z,18.00
2018-06-10T03:41:59.975Z,18.10
2018-06-10T03:44:29.065Z,18.20
2018-06-10T03:46:57.650Z,18.20
2018-06-10T03:49:26.498Z,18.20
2018-06-10T03:54:23.414Z,18.30
2018-06-10T03:56:51.651Z,18.40
2018-06-10T03:59:20.245Z,18.40
2018-06-10T04:01:48.684Z,18.50
2018-06-10T04:04:17.378Z,18.30
2018-06-10T04:06:45.590Z,18.30
2018-06-10T04:09:14.124Z,18.30
2018-06-10T04:11:42.296Z,18.30
2018-06-10T04:14:11.342Z,18.30
2018-06-10T04:16:40.420Z,18.30
2018-06-10T04:19:08.706Z,18.30
2018-06-10T04:31:29.586Z,18.50
2018-06-10T04:33:58.159Z,18.70
2018-06-10T04:36:27.513Z,18.80
2018-06-10T04:38:56.239Z,18.70
2018-06-10T04:41:24.727Z,18.70
2018-06-10T04:43:53.737Z,18.80
2018-06-10T04:46:22.110Z,18.70
2018-06-10T04:48:50.393Z,18.70
2018-06-10T04:51:18.799Z,18.80
2018-06-10T04:53:48.429Z,18.80
2018-06-10T04:56:17.097Z,18.90
2018-06-10T04:58:45.555Z,19.10
2018-06-10T05:01:14.743Z,19.00
2018-06-10T05:03:43.383Z,19.10
2018-06-10T05:06:11.936Z,19.10
2018-06-10T05:08:40.448Z,19.10
2018-06-10T05:11:09.267Z,19.10
2018-06-10T05:13:37.890Z,19.20
2018-06-10T05:16:06.596Z,19.20
2018-06-10T05:18:34.778Z,19.20
2018-06-10T05:21:03.540Z,19.10
2018-06-10T05:23:32.315Z,19.10
2018-06-10T05:26:00.996Z,19.10
2018-06-10T05:28:29.325Z,19.00
2018-06-10T05:30:57.519Z,18.40
2018-06-10T05:35:54.687Z,17.80
2018-06-10T05:38:23.168Z,17.70
2018-06-10T05:40:51.255Z,17.70
2018-06-10T05:43:19.947Z,17.70
2018-06-10T05:48:17.379Z,18.00
2018-06-10T05:50:46.026Z,18.10
2018-06-10T05:53:14.797Z,18.30
2018-06-10T05:55:43.432Z,18.40
2018-06-10T05:58:12.012Z,18.60
2018-06-10T06:00:41.068Z,18.60
2018-06-10T06:03:11.500Z,18.70
2018-06-10T06:05:41.365Z,18.80
2018-06-10T06:08:11.527Z,18.90
2018-06-10T06:10:41.484Z,19.00
2018-06-10T06:13:10.390Z,19.10
2018-06-10T06:15:39.642Z,19.00
2018-06-10T06:18:08.506Z,18.90
2018-06-10T06:20:37.186Z,18.80
2018-06-10T06:23:05.559Z,18.80
2018-06-10T06:25:33.859Z,18.80
2018-06-10T06:28:02.179Z,18.90
2018-06-10T06:30:31.238Z,19.00
2018-06-10T06:32:59.966Z,19.10
2018-06-10T06:35:28.352Z,19.10
2018-06-10T06:37:57.179Z,19.20
2018-06-10T06:40:30.096Z,19.00
2018-06-10T06:42:58.338Z,18.90
2018-06-10T06:45:26.470Z,18.70
2018-06-10T06:47:55.639Z,18.70
2018-06-10T06:50:24.496Z,18.80
2018-06-10T06:52:52.778Z,18.70
2018-06-10T06:55:20.955Z,18.70
2018-06-10T06:57:49.387Z,18.80
2018-06-10T07:00:17.882Z,18.70
2018-06-10T07:02:46.474Z,18.60
2018-06-10T07:05:15.505Z,18.60
2018-06-10T07:07:44.407Z,18.60
2018-06-10T07:10:13.383Z,18.60
2018-06-10T07:12:41.811Z,18.60
2018-06-10T07:15:10.547Z,18.60
2018-06-10T07:17:39.352Z,18.60
2018-06-10T07:22:36.306Z,18.80
2018-06-10T07:25:04.470Z,18.80
2018-06-10T07:27:33.185Z,18.90
2018-06-10T07:30:01.448Z,19.00
2018-06-10T07:32:29.662Z,19.20
2018-06-10T07:34:58.226Z,19.30
2018-06-10T07:37:27.205Z,19.40
2018-06-10T07:39:55.700Z,19.60
2018-06-10T07:42:24.438Z,19.70
2018-06-10T07:44:53.176Z,19.80
2018-06-10T07:52:18.197Z,19.90
2018-06-10T07:54:47.229Z,19.90
2018-06-10T07:57:15.914Z,19.90
2018-06-10T07:59:44.227Z,19.90
2018-06-10T08:02:12.449Z,19.90
2018-06-10T08:04:40.976Z,19.80
2018-06-10T08:07:09.314Z,19.60
2018-06-10T08:09:38.236Z,19.60
2018-06-10T08:12:06.512Z,19.60
2018-06-10T08:14:34.770Z,19.70
2018-06-10T08:17:03.582Z,19.80
2018-06-10T08:19:33.189Z,19.90
2018-06-10T08:22:01.467Z,19.90
2018-06-10T08:24:29.790Z,20.00
2018-06-10T08:29:26.463Z,19.90
2018-06-10T08:36:51.169Z,20.00
2018-06-10T08:39:19.312Z,20.00
2018-06-10T08:41:48.655Z,20.10
2018-06-10T08:44:16.922Z,20.20
2018-06-10T08:46:45.039Z,20.30
2018-06-10T08:49:13.646Z,20.40
2018-06-10T08:51:41.962Z,20.40
2018-06-10T08:54:10.810Z,20.60
2018-06-10T08:56:38.983Z,20.60
2018-06-10T08:59:09.035Z,20.70
2018-06-10T09:01:38.006Z,20.70
2018-06-10T09:04:06.326Z,20.90
2018-06-10T09:06:35.343Z,20.60
2018-06-10T09:09:06.221Z,20.60
2018-06-10T09:11:35.197Z,20.40
2018-06-10T09:14:03.425Z,20.20
2018-06-10T09:16:32.303Z,20.20
2018-06-10T09:19:01.075Z,20.20
2018-06-10T09:21:29.751Z,20.00
2018-06-10T09:23:58.488Z,20.00
2018-06-10T09:28:54.762Z,19.90
2018-06-10T09:31:23.072Z,19.80
2018-06-10T09:33:52.085Z,19.70
2018-06-10T09:36:20.257Z,19.70
2018-06-10T09:38:49.839Z,19.70
2018-06-10T09:41:19.067Z,19.70
2018-06-10T09:43:47.218Z,19.70
2018-06-10T09:46:15.418Z,19.70
2018-06-10T09:48:43.599Z,19.80
2018-06-10T09:51:11.714Z,19.70
2018-06-10T09:53:40.227Z,19.60
2018-06-10T09:56:08.477Z,19.50
2018-06-10T09:58:37.069Z,19.40
2018-06-10T10:01:05.679Z,19.30
2018-06-10T10:03:34.158Z,19.20
2018-06-10T10:06:02.419Z,19.10
2018-06-10T10:08:30.590Z,19.10
2018-06-10T10:10:59.848Z,19.00
2018-06-10T10:13:29.110Z,19.00
2018-06-10T10:15:58.476Z,19.10
2018-06-10T10:18:26.567Z,19.10
2018-06-10T10:20:55.756Z,19.10
2018-06-10T10:23:24.140Z,19.10
2018-06-10T10:25:53.117Z,19.20
2018-06-10T10:28:22.635Z,19.40
2018-06-10T10:30:51.006Z,19.50
2018-06-10T10:33:20.042Z,19.60
2018-06-10T10:35:48.230Z,19.90
2018-06-10T10:38:16.997Z,19.90
2018-06-10T10:40:45.629Z,20.00
2018-06-10T10:43:13.938Z,19.90
2018-06-10T10:45:42.201Z,20.00
2018-06-10T10:48:10.518Z,19.90
2018-06-10T10:50:38.774Z,19.80
2018-06-10T10:53:07.028Z,19.90
2018-06-10T10:55:35.847Z,19.80
2018-06-10T10:58:05.267Z,20.00
2018-06-10T11:00:34.042Z,19.90
2018-06-10T11:03:02.757Z,19.70
2018-06-10T11:05:32.673Z,19.70
2018-06-10T11:08:01.093Z,19.40
2018-06-10T11:10:29.455Z,19.30
2018-06-10T11:12:57.918Z,19.30
2018-06-10T11:15:26.070Z,19.20
2018-06-10T11:17:54.940Z,19.00
2018-06-10T11:20:23.883Z,19.10
2018-06-10T11:22:52.401Z,19.30
2018-06-10T11:25:21.015Z,19.30
2018-06-10T11:27:49.636Z,19.40
2018-06-10T11:32:46.688Z,19.30
2018-06-10T11:35:15.439Z,19.30
2018-06-10T11:37:43.803Z,19.50
2018-06-10T11:40:12.622Z,19.70
2018-06-10T11:42:42.751Z,20.00
2018-06-10T11:45:10.966Z,20.20
2018-06-10T11:47:40.398Z,20.40
2018-06-10T11:50:08.633Z,20.50
2018-06-10T11:52:37.671Z,20.50
2018-06-10T11:55:05.942Z,20.70
2018-06-10T11:57:34.836Z,20.90
2018-06-10T12:00:03.772Z,21.00
2018-06-10T12:02:31.899Z,21.10
2018-06-10T12:05:00.371Z,21.40
2018-06-10T12:07:29.102Z,21.60
2018-06-10T12:09:57.491Z,21.60
2018-06-10T12:14:56.464Z,21.70
2018-06-10T12:17:25.552Z,21.70
2018-06-10T12:19:56.553Z,21.80
2018-06-10T12:22:24.751Z,22.00
2018-06-10T12:24:53.403Z,22.00
2018-06-10T12:27:22.414Z,21.90
2018-06-10T12:29:51.417Z,22.00
2018-06-10T12:32:19.737Z,22.00
2018-06-10T12:34:48.063Z,21.90
2018-06-10T12:37:16.807Z,21.70
2018-06-10T12:39:45.062Z,21.40
2018-06-10T12:42:13.716Z,21.20
2018-06-10T12:44:42.678Z,21.00
2018-06-10T12:47:11.432Z,20.90
2018-06-10T12:49:39.694Z,20.90
2018-06-10T12:52:07.954Z,20.90
2018-06-10T12:54:36.503Z,20.80
2018-06-10T12:57:05.225Z,20.70
2018-06-10T12:59:34.527Z,20.60
2018-06-10T13:02:03.381Z,20.50
2018-06-10T13:04:31.900Z,20.50
2018-06-10T13:07:00.031Z,20.80
2018-06-10T13:09:29.022Z,21.00
2018-06-10T13:11:58.663Z,21.40
2018-06-10T13:14:28.161Z,21.80
2018-06-10T13:16:56.518Z,21.80
2018-06-10T13:19:24.743Z,22.00
2018-06-10T13:21:53.771Z,22.10
2018-06-10T13:24:21.992Z,22.40
2018-06-10T13:26:50.499Z,22.50
2018-06-10T13:29:19.033Z,22.70
2018-06-10T13:31:47.854Z,23.00
2018-06-10T13:36:45.194Z,23.40
2018-06-10T13:39:13.900Z,23.10
2018-06-10T13:41:42.658Z,23.10
2018-06-10T13:44:11.846Z,23.10
2018-06-10T13:46:40.639Z,23.00
2018-06-10T13:49:08.779Z,23.30
2018-06-10T13:51:37.669Z,23.40
2018-06-10T13:56:34.601Z,24.20
2018-06-10T13:59:02.711Z,24.30
2018-06-10T14:01:31.025Z,24.40
2018-06-10T14:03:59.230Z,24.20
2018-06-10T14:06:28.252Z,24.30
2018-06-10T14:08:56.582Z,23.90
2018-06-10T14:11:25.477Z,23.70
2018-06-10T14:13:53.708Z,23.60
2018-06-10T14:16:22.290Z,23.70
2018-06-10T14:21:19.061Z,23.50
2018-06-10T14:23:48.150Z,23.40
2018-06-10T14:26:17.702Z,23.60
2018-06-10T14:28:46.106Z,23.70
2018-06-10T14:33:42.477Z,23.50
2018-06-10T14:36:11.418Z,23.60
2018-06-10T14:38:40.498Z,24.00
2018-06-10T14:41:09.556Z,24.30
2018-06-10T14:43:38.353Z,24.20
2018-06-10T14:46:06.793Z,24.00
2018-06-10T14:48:34.945Z,23.70
2018-06-10T14:51:03.454Z,24.00
2018-06-10T14:53:31.790Z,24.20
2018-06-10T14:56:00.029Z,24.20
2018-06-10T14:58:28.869Z,24.20
2018-06-10T15:00:57.682Z,24.20
2018-06-10T15:03:26.557Z,24.10
2018-06-10T15:05:55.503Z,24.00
2018-06-10T15:08:23.714Z,23.80
2018-06-10T15:10:52.102Z,23.60
2018-06-10T15:13:21.193Z,23.50
2018-06-10T15:15:49.783Z,23.10
2018-06-10T15:18:18.794Z,23.00
2018-06-10T15:20:47.324Z,22.80
2018-06-10T15:23:16.110Z,22.90
2018-06-10T15:25:45.000Z,22.70
2018-06-10T15:28:13.999Z,22.60
2018-06-10T15:33:10.641Z,23.60
2018-06-10T15:35:39.194Z,23.80
2018-06-10T15:38:08.665Z,23.80
2018-06-10T15:40:37.018Z,23.50
2018-06-10T15:43:05.206Z,23.30
2018-06-10T15:45:33.619Z,23.30
2018-06-10T15:50:31.387Z,23.30
2018-06-10T15:52:59.671Z,23.30
2018-06-10T15:55:28.394Z,23.20
2018-06-10T15:57:57.137Z,23.00
2018-06-10T16:00:25.569Z,22.90
2018-06-10T16:02:53.738Z,22.80
2018-06-10T16:05:21.983Z,22.70
2018-06-10T16:07:50.387Z,22.70
2018-06-10T16:10:18.628Z,22.80
2018-06-10T16:12:46.840Z,22.80
2018-06-10T16:15:15.971Z,22.50
2018-06-10T16:17:44.826Z,22.50
2018-06-10T16:20:13.307Z,22.50
2018-06-10T16:22:41.905Z,22.70
2018-06-10T16:25:10.026Z,22.80
2018-06-10T16:27:38.360Z,22.80
2018-06-10T16:30:08.327Z,22.70
2018-06-10T16:32:36.444Z,22.70
2018-06-10T16:35:04.599Z,22.70
2018-06-10T16:37:32.787Z,22.70
2018-06-10T16:40:01.144Z,22.50
2018-06-10T16:42:29.369Z,22.30
2018-06-10T16:47:26.348Z,22.20
2018-06-10T16:49:54.753Z,22.10
2018-06-10T16:52:22.968Z,22.10
2018-06-10T16:54:51.226Z,22.00
2018-06-10T16:57:20.076Z,21.80
2018-06-10T16:59:48.430Z,21.70
2018-06-10T17:02:17.298Z,21.70
2018-06-10T17:04:46.101Z,21.90
2018-06-10T17:07:15.275Z,22.00
2018-06-10T17:09:44.268Z,22.00
2018-06-10T17:12:12.496Z,22.00
2018-06-10T17:14:40.726Z,21.90
2018-06-10T17:17:08.932Z,21.70
2018-06-10T17:19:38.645Z,21.70
2018-06-10T17:22:06.877Z,21.70
2018-06-10T17:24:36.551Z,21.90
2018-06-10T17:27:04.702Z,22.00
2018-06-10T17:29:33.412Z,21.80
2018-06-10T17:32:01.871Z,21.50
2018-06-10T17:34:30.082Z,21.30
2018-06-10T17:36:58.287Z,21.10
2018-06-10T17:39:26.397Z,21.10
2018-06-10T17:41:55.385Z,21.00
2018-06-10T17:44:23.608Z,21.00
2018-06-10T17:46:52.143Z,21.10
2018-06-10T17:49:21.499Z,21.10
2018-06-10T17:51:50.093Z,20.90
2018-06-10T17:54:18.989Z,20.90
2018-06-10T17:56:47.227Z,20.90
2018-06-10T17:59:15.943Z,20.80
2018-06-10T18:01:45.535Z,20.80
2018-06-10T18:04:14.938Z,20.70
2018-06-10T18:06:43.947Z,20.70
2018-06-10T18:09:13.517Z,20.70
2018-06-10T18:11:41.851Z,20.70
2018-06-10T18:14:11.427Z,20.80
2018-06-10T18:16:39.840Z,20.80
2018-06-10T18:19:08.839Z,20.90
2018-06-10T18:21:37.239Z,20.80
2018-06-10T18:24:06.206Z,20.70
2018-06-10T18:26:35.202Z,20.70
2018-06-10T18:29:03.420Z,20.80
2018-06-10T18:31:32.209Z,20.80
2018-06-10T18:34:01.321Z,20.80
2018-06-10T18:36:30.338Z,20.80
2018-06-10T18:38:58.908Z,20.90
2018-06-10T18:41:27.322Z,20.90
2018-06-10T18:43:55.774Z,20.70
2018-06-10T18:46:24.003Z,20.60
2018-06-10T18:48:52.182Z,20.60
2018-06-10T18:51:20.771Z,20.60
2018-06-10T18:53:49.142Z,20.50
2018-06-10T18:58:46.090Z,20.40
2018-06-10T19:01:15.313Z,20.30
2018-06-10T19:03:43.506Z,20.20
2018-06-10T19:06:11.889Z,20.10
2018-06-10T19:08:40.177Z,20.00
2018-06-10T19:11:08.583Z,20.00
2018-06-10T19:13:37.186Z,19.90
2018-06-10T19:16:06.155Z,19.80
2018-06-10T19:18:34.426Z,19.80
2018-06-10T19:21:04.199Z,19.70
2018-06-10T19:26:01.222Z,19.60
2018-06-10T19:28:30.094Z,19.60
2018-06-10T19:31:01.642Z,19.50
2018-06-10T19:33:30.746Z,19.40
2018-06-10T19:35:59.182Z,19.40
2018-06-10T19:38:27.350Z,19.30
2018-06-10T19:40:55.551Z,19.20
2018-06-10T19:43:24.481Z,19.10
2018-06-10T19:45:52.655Z,19.10
2018-06-10T19:48:20.778Z,19.00
2018-06-10T19:50:50.297Z,18.90
2018-06-10T19:53:19.964Z,18.80
2018-06-10T19:55:48.672Z,18.70
2018-06-10T20:00:45.297Z,18.50
2018-06-10T20:03:13.819Z,18.40
2018-06-10T20:08:11.589Z,18.30
2018-06-10T20:13:08.710Z,18.30
2018-06-10T20:15:37.098Z,18.30
2018-06-10T20:18:06.613Z,18.20
2018-06-10T20:20:35.268Z,18.20
2018-06-10T20:23:03.966Z,18.20
2018-06-10T20:25:32.680Z,18.10
2018-06-10T20:28:01.807Z,18.10
2018-06-10T20:30:31.224Z,18.10
2018-06-10T20:32:59.601Z,18.00
2018-06-10T20:35:28.687Z,18.00
2018-06-10T20:42:53.991Z,17.90
2018-06-10T20:45:22.483Z,17.90
2018-06-10T20:47:51.339Z,17.90
2018-06-10T20:50:19.603Z,17.90
2018-06-10T20:52:48.462Z,17.90
2018-06-10T20:55:17.301Z,17.80
2018-06-10T20:57:46.410Z,17.80
2018-06-10T21:00:15.444Z,17.80
2018-06-10T21:02:43.884Z,17.80
2018-06-10T21:05:12.702Z,17.80
2018-06-10T21:07:41.976Z,17.80
2018-06-10T21:10:10.368Z,17.70
2018-06-10T21:12:38.563Z,17.60
2018-06-10T21:15:07.006Z,17.60
2018-06-10T21:17:35.537Z,17.50
2018-06-10T21:20:04.393Z,17.50
2018-06-10T21:22:33.003Z,17.40
2018-06-10T21:27:32.078Z,17.40
2018-06-10T21:30:00.563Z,17.40
2018-06-10T21:32:29.863Z,17.40
2018-06-10T21:34:58.227Z,17.40
2018-06-10T21:37:26.872Z,17.30
2018-06-10T21:39:55.731Z,17.30
2018-06-10T21:42:23.923Z,17.30
2018-06-10T21:44:52.976Z,17.30
2018-06-10T21:47:21.955Z,17.30
2018-06-10T21:49:50.390Z,17.40
2018-06-10T21:52:19.967Z,17.30
2018-06-10T21:54:49.769Z,17.20
2018-06-10T21:57:17.969Z,17.20
2018-06-10T21:59:46.973Z,17.30
2018-06-10T22:02:15.519Z,17.30
2018-06-10T22:04:44.447Z,17.20
2018-06-10T22:07:13.615Z,17.20
2018-06-10T22:09:42.458Z,17.20
2018-06-10T22:12:10.890Z,17.20
2018-06-10T22:14:39.310Z,17.20
2018-06-10T22:17:08.898Z,17.10
2018-06-10T22:19:37.013Z,17.10
2018-06-10T22:22:05.833Z,17.10
2018-06-10T22:24:34.130Z,17.00
2018-06-10T22:27:02.725Z,17.00
2018-06-10T22:29:30.828Z,17.00
2018-06-10T22:31:59.304Z,16.90
2018-06-10T22:34:27.435Z,16.80
2018-06-10T22:36:55.759Z,16.70
2018-06-10T22:39:23.897Z,16.60
2018-06-10T22:41:52.625Z,16.50
2018-06-10T22:46:48.904Z,16.40
2018-06-10T22:49:18.290Z,16.30
2018-06-10T22:51:47.026Z,16.30
2018-06-10T22:54:43.754Z,16.30
2018-06-10T22:57:12.534Z,16.20
2018-06-10T22:59:41.668Z,16.20
2018-06-10T23:02:10.682Z,16.20
2018-06-10T23:04:38.956Z,16.20
2018-06-10T23:07:07.713Z,16.20
2018-06-10T23:09:35.766Z,16.10
2018-06-10T23:12:03.986Z,16.10
2018-06-10T23:14:32.131Z,16.00
2018-06-10T23:17:01.000Z,15.90
2018-06-10T23:19:29.910Z,15.90
2018-06-10T23:21:58.902Z,15.90
2018-06-10T23:24:27.432Z,15.80
2018-06-10T23:26:55.667Z,15.80
2018-06-10T23:29:24.400Z,15.90
2018-06-10T23:31:53.716Z,15.80
2018-06-10T23:34:22.926Z,15.80
2018-06-10T23:36:52.074Z,15.70
2018-06-10T23:39:20.755Z,15.70
2018-06-10T23:41:48.926Z,15.60
2018-06-10T23:44:17.848Z,15.60
2018-06-10T23:46:45.900Z,15.50
2018-06-10T23:49:15.387Z,15.40
2018-06-10T23:51:45.510Z,15.40
2018-06-10T23:54:14.005Z,15.40
2018-06-10T23:56:42.392Z,15.40
2018-06-10T23:59:10.764Z,15.40
